sensor_id;sensor_type;location;lat;lon;timestamp;P1;durP1;ratioP1;P2;durP2;ratioP2
2053;SDS011;1032;52.542;13.440;2023-04-24T00:02:19;5.80;;;4.40;;
2053;SDS011;1032;52.542;13.440;2023-04-24T00:04:47;5.27;;;4.77;;
2053;SDS011;1032;52.542;13.440;2023-04-24T00:07:15;5.13;;;4.70;;
2053;SDS011;1032;52.542;13.440;2023-04-24T00:09:42;5.63;;;5.13;;
2053;SDS011;1032;52.542;13.440;2023-04-24T00:12:08;6.20;;;5.60;;
2053;SDS011;1032;52.542;13.440;2023-04-24T00:14:35;5.80;;;5.20;;
2053;SDS011;1032;52.542;13.440;2023-04-24T00:17:02;5.50;;;4.70;;
2053;SDS011;1032;52.542;13.440;2023-04-24T00:19:28;5.30;;;4.80;;
2053;SDS011;1032;52.542;13.440;2023-04-24T00:21:55;6.20;;;5.20;;
2053;SDS011;1032;52.542;13.440;2023-04-24T00:24:23;5.77;;;5.00;;
2053;SDS011;1032;52.542;13.440;2023-04-24T00:26:50;6.53;;;5.40;;
2053;SDS011;1032;52.542;13.440;2023-04-24T00:29:16;7.57;;;5.20;;
2053;SDS011;1032;52.542;13.440;2023-04-24T00:31:43;5.93;;;5.37;;
2053;SDS011;1032;52.542;13.440;2023-04-24T00:34:09;5.60;;;5.10;;
2053;SDS011;1032;52.542;13.440;2023-04-24T00:36:36;5.70;;;5.10;;
2053;SDS011;1032;52.542;13.440;2023-04-24T00:39:03;7.50;;;4.97;;
2053;SDS011;1032;52.542;13.440;2023-04-24T00:41:31;9.00;;;6.20;;
2053;SDS011;1032;52.542;13.440;2023-04-24T00:43:58;5.93;;;5.43;;
2053;SDS011;1032;52.542;13.440;2023-04-24T00:46:25;6.03;;;5.53;;
2053;SDS011;1032;52.542;13.440;2023-04-24T00:48:51;6.03;;;5.53;;
2053;SDS011;1032;52.542;13.440;2023-04-24T00:51:18;6.20;;;5.63;;
2053;SDS011;1032;52.542;13.440;2023-04-24T00:53:46;6.63;;;5.67;;
2053;SDS011;1032;52.542;13.440;2023-04-24T00:56:12;7.90;;;5.37;;
2053;SDS011;1032;52.542;13.440;2023-04-24T00:58:41;6.00;;;5.50;;
2053;SDS011;1032;52.542;13.440;2023-04-24T01:01:08;5.33;;;4.83;;
2053;SDS011;1032;52.542;13.440;2023-04-24T01:03:36;5.50;;;5.00;;
2053;SDS011;1032;52.542;13.440;2023-04-24T01:06:04;6.80;;;5.77;;
2053;SDS011;1032;52.542;13.440;2023-04-24T01:08:32;6.73;;;5.63;;
2053;SDS011;1032;52.542;13.440;2023-04-24T01:11:01;6.50;;;5.80;;
2053;SDS011;1032;52.542;13.440;2023-04-24T01:13:30;5.93;;;5.23;;
2053;SDS011;1032;52.542;13.440;2023-04-24T01:15:59;5.50;;;5.00;;
2053;SDS011;1032;52.542;13.440;2023-04-24T01:18:26;8.10;;;6.30;;
2053;SDS011;1032;52.542;13.440;2023-04-24T01:20:54;6.57;;;5.97;;
2053;SDS011;1032;52.542;13.440;2023-04-24T01:23:24;9.53;;;5.57;;
2053;SDS011;1032;52.542;13.440;2023-04-24T01:25:51;6.50;;;5.90;;
2053;SDS011;1032;52.542;13.440;2023-04-24T01:28:18;6.50;;;5.90;;
2053;SDS011;1032;52.542;13.440;2023-04-24T01:30:45;6.87;;;6.20;;
2053;SDS011;1032;52.542;13.440;2023-04-24T01:33:12;6.27;;;5.37;;
2053;SDS011;1032;52.542;13.440;2023-04-24T01:35:39;6.00;;;5.40;;
2053;SDS011;1032;52.542;13.440;2023-04-24T01:38:06;6.70;;;5.70;;
2053;SDS011;1032;52.542;13.440;2023-04-24T01:40:36;6.00;;;5.20;;
2053;SDS011;1032;52.542;13.440;2023-04-24T01:43:02;6.50;;;5.90;;
2053;SDS011;1032;52.542;13.440;2023-04-24T01:45:29;5.80;;;5.30;;
2053;SDS011;1032;52.542;13.440;2023-04-24T01:47:56;7.33;;;5.30;;
2053;SDS011;1032;52.542;13.440;2023-04-24T01:50:23;6.23;;;5.70;;
2053;SDS011;1032;52.542;13.440;2023-04-24T01:52:49;9.37;;;6.77;;
2053;SDS011;1032;52.542;13.440;2023-04-24T01:55:16;6.53;;;5.90;;
2053;SDS011;1032;52.542;13.440;2023-04-24T01:57:45;6.20;;;5.70;;
2053;SDS011;1032;52.542;13.440;2023-04-24T02:00:12;6.47;;;5.87;;
2053;SDS011;1032;52.542;13.440;2023-04-24T02:02:39;7.07;;;5.97;;
2053;SDS011;1032;52.542;13.440;2023-04-24T02:05:07;6.17;;;5.67;;
2053;SDS011;1032;52.542;13.440;2023-04-24T02:07:35;6.33;;;5.80;;
2053;SDS011;1032;52.542;13.440;2023-04-24T02:10:02;7.43;;;6.70;;
2053;SDS011;1032;52.542;13.440;2023-04-24T02:12:29;7.60;;;6.90;;
2053;SDS011;1032;52.542;13.440;2023-04-24T02:14:57;7.50;;;6.80;;
2053;SDS011;1032;52.542;13.440;2023-04-24T02:17:23;7.30;;;6.70;;
2053;SDS011;1032;52.542;13.440;2023-04-24T02:19:50;6.37;;;5.73;;
2053;SDS011;1032;52.542;13.440;2023-04-24T02:22:17;6.90;;;6.40;;
2053;SDS011;1032;52.542;13.440;2023-04-24T02:24:43;7.00;;;6.33;;
2053;SDS011;1032;52.542;13.440;2023-04-24T02:27:13;7.60;;;6.90;;
2053;SDS011;1032;52.542;13.440;2023-04-24T02:29:40;6.93;;;6.40;;
2053;SDS011;1032;52.542;13.440;2023-04-24T02:32:08;7.50;;;6.80;;
2053;SDS011;1032;52.542;13.440;2023-04-24T02:34:36;7.43;;;6.80;;
2053;SDS011;1032;52.542;13.440;2023-04-24T02:37:03;7.47;;;6.77;;
2053;SDS011;1032;52.542;13.440;2023-04-24T02:39:30;7.70;;;7.07;;
2053;SDS011;1032;52.542;13.440;2023-04-24T02:41:56;9.50;;;8.60;;
2053;SDS011;1032;52.542;13.440;2023-04-24T02:44:23;7.53;;;6.83;;
2053;SDS011;1032;52.542;13.440;2023-04-24T02:46:50;7.00;;;6.40;;
2053;SDS011;1032;52.542;13.440;2023-04-24T02:49:18;7.30;;;6.60;;
2053;SDS011;1032;52.542;13.440;2023-04-24T02:51:44;7.20;;;6.60;;
2053;SDS011;1032;52.542;13.440;2023-04-24T02:54:11;8.30;;;6.83;;
2053;SDS011;1032;52.542;13.440;2023-04-24T02:56:37;7.93;;;7.27;;
2053;SDS011;1032;52.542;13.440;2023-04-24T02:59:06;7.73;;;7.03;;
2053;SDS011;1032;52.542;13.440;2023-04-24T03:01:32;7.47;;;6.77;;
2053;SDS011;1032;52.542;13.440;2023-04-24T03:03:59;9.23;;;7.40;;
2053;SDS011;1032;52.542;13.440;2023-04-24T03:06:27;7.37;;;6.50;;
2053;SDS011;1032;52.542;13.440;2023-04-24T03:08:54;7.93;;;7.13;;
2053;SDS011;1032;52.542;13.440;2023-04-24T03:11:20;7.90;;;7.10;;
2053;SDS011;1032;52.542;13.440;2023-04-24T03:13:47;8.80;;;8.00;;
2053;SDS011;1032;52.542;13.440;2023-04-24T03:16:13;8.27;;;7.20;;
2053;SDS011;1032;52.542;13.440;2023-04-24T03:18:40;9.77;;;7.73;;
2053;SDS011;1032;52.542;13.440;2023-04-24T03:21:07;9.37;;;8.50;;
2053;SDS011;1032;52.542;13.440;2023-04-24T03:23:36;8.50;;;7.70;;
2053;SDS011;1032;52.542;13.440;2023-04-24T03:26:02;8.77;;;7.90;;
2053;SDS011;1032;52.542;13.440;2023-04-24T03:28:30;11.30;;;8.50;;
2053;SDS011;1032;52.542;13.440;2023-04-24T03:30:59;12.17;;;7.67;;
2053;SDS011;1032;52.542;13.440;2023-04-24T03:33:30;13.30;;;8.53;;
2053;SDS011;1032;52.542;13.440;2023-04-24T03:35:59;8.53;;;7.73;;
2053;SDS011;1032;52.542;13.440;2023-04-24T03:38:35;9.10;;;6.90;;
2053;SDS011;1032;52.542;13.440;2023-04-24T03:41:28;9.03;;;8.23;;
2053;SDS011;1032;52.542;13.440;2023-04-24T03:44:21;8.23;;;7.50;;
2053;SDS011;1032;52.542;13.440;2023-04-24T03:46:47;8.13;;;7.40;;
2053;SDS011;1032;52.542;13.440;2023-04-24T03:49:14;9.50;;;8.47;;
2053;SDS011;1032;52.542;13.440;2023-04-24T03:51:44;8.00;;;7.30;;
2053;SDS011;1032;52.542;13.440;2023-04-24T03:54:19;8.07;;;7.17;;
2053;SDS011;1032;52.542;13.440;2023-04-24T03:56:47;7.77;;;7.07;;
2053;SDS011;1032;52.542;13.440;2023-04-24T03:59:14;8.13;;;7.30;;
2053;SDS011;1032;52.542;13.440;2023-04-24T04:01:45;9.57;;;7.33;;
2053;SDS011;1032;52.542;13.440;2023-04-24T04:04:16;10.93;;;8.33;;
2053;SDS011;1032;52.542;13.440;2023-04-24T04:06:44;9.23;;;8.23;;
2053;SDS011;1032;52.542;13.440;2023-04-24T04:09:11;8.63;;;7.73;;
2053;SDS011;1032;52.542;13.440;2023-04-24T04:11:39;8.97;;;8.07;;
2053;SDS011;1032;52.542;13.440;2023-04-24T04:14:06;11.23;;;7.63;;
2053;SDS011;1032;52.542;13.440;2023-04-24T04:16:35;10.63;;;7.50;;
2053;SDS011;1032;52.542;13.440;2023-04-24T04:19:02;9.30;;;8.37;;
2053;SDS011;1032;52.542;13.440;2023-04-24T04:21:29;8.43;;;7.63;;
2053;SDS011;1032;52.542;13.440;2023-04-24T04:24:08;10.67;;;7.37;;
2053;SDS011;1032;52.542;13.440;2023-04-24T04:26:38;10.53;;;8.03;;
2053;SDS011;1032;52.542;13.440;2023-04-24T04:29:08;10.03;;;7.37;;
2053;SDS011;1032;52.542;13.440;2023-04-24T04:31:38;10.77;;;7.63;;
2053;SDS011;1032;52.542;13.440;2023-04-24T04:34:09;8.33;;;7.43;;
2053;SDS011;1032;52.542;13.440;2023-04-24T04:36:37;7.60;;;6.80;;
2053;SDS011;1032;52.542;13.440;2023-04-24T04:39:18;8.83;;;7.60;;
2053;SDS011;1032;52.542;13.440;2023-04-24T04:42:05;9.57;;;7.47;;
2053;SDS011;1032;52.542;13.440;2023-04-24T04:44:38;7.87;;;7.17;;
2053;SDS011;1032;52.542;13.440;2023-04-24T04:47:06;8.97;;;7.60;;
2053;SDS011;1032;52.542;13.440;2023-04-24T04:49:35;8.33;;;7.53;;
2053;SDS011;1032;52.542;13.440;2023-04-24T04:52:03;7.20;;;6.60;;
2053;SDS011;1032;52.542;13.440;2023-04-24T04:54:30;7.90;;;7.20;;
2053;SDS011;1032;52.542;13.440;2023-04-24T04:56:57;6.90;;;6.30;;
2053;SDS011;1032;52.542;13.440;2023-04-24T04:59:25;8.90;;;6.93;;
2053;SDS011;1032;52.542;13.440;2023-04-24T05:01:58;8.17;;;6.77;;
2053;SDS011;1032;52.542;13.440;2023-04-24T05:04:25;8.27;;;7.47;;
2053;SDS011;1032;52.542;13.440;2023-04-24T05:06:52;8.40;;;7.60;;
2053;SDS011;1032;52.542;13.440;2023-04-24T05:09:20;7.50;;;6.80;;
2053;SDS011;1032;52.542;13.440;2023-04-24T05:12:01;8.10;;;7.30;;
2053;SDS011;1032;52.542;13.440;2023-04-24T05:14:32;8.90;;;8.10;;
2053;SDS011;1032;52.542;13.440;2023-04-24T05:16:59;8.07;;;7.27;;
2053;SDS011;1032;52.542;13.440;2023-04-24T05:19:26;9.20;;;7.90;;
2053;SDS011;1032;52.542;13.440;2023-04-24T05:21:53;8.17;;;7.33;;
2053;SDS011;1032;52.542;13.440;2023-04-24T05:24:19;7.47;;;6.17;;
2053;SDS011;1032;52.542;13.440;2023-04-24T05:27:06;7.60;;;6.90;;
2053;SDS011;1032;52.542;13.440;2023-04-24T05:29:38;7.70;;;6.57;;
2053;SDS011;1032;52.542;13.440;2023-04-24T05:32:07;8.73;;;6.47;;
2053;SDS011;1032;52.542;13.440;2023-04-24T05:34:36;7.93;;;6.20;;
2053;SDS011;1032;52.542;13.440;2023-04-24T05:37:18;7.30;;;5.00;;
2053;SDS011;1032;52.542;13.440;2023-04-24T05:39:45;7.37;;;6.00;;
2053;SDS011;1032;52.542;13.440;2023-04-24T05:42:12;6.50;;;5.03;;
2053;SDS011;1032;52.542;13.440;2023-04-24T05:44:40;7.30;;;5.77;;
2053;SDS011;1032;52.542;13.440;2023-04-24T05:47:06;8.00;;;5.33;;
2053;SDS011;1032;52.542;13.440;2023-04-24T05:49:33;6.73;;;4.67;;
2053;SDS011;1032;52.542;13.440;2023-04-24T05:52:00;12.03;;;5.23;;
2053;SDS011;1032;52.542;13.440;2023-04-24T05:54:29;7.63;;;4.57;;
2053;SDS011;1032;52.542;13.440;2023-04-24T05:56:55;5.40;;;3.97;;
2053;SDS011;1032;52.542;13.440;2023-04-24T05:59:37;8.00;;;4.20;;
2053;SDS011;1032;52.542;13.440;2023-04-24T06:02:05;6.07;;;3.87;;
2053;SDS011;1032;52.542;13.440;2023-04-24T06:04:32;4.07;;;3.67;;
2053;SDS011;1032;52.542;13.440;2023-04-24T06:06:59;5.57;;;3.70;;
2053;SDS011;1032;52.542;13.440;2023-04-24T06:09:25;3.17;;;2.80;;
2053;SDS011;1032;52.542;13.440;2023-04-24T06:11:52;4.07;;;3.20;;
2053;SDS011;1032;52.542;13.440;2023-04-24T06:14:22;4.07;;;2.80;;
2053;SDS011;1032;52.542;13.440;2023-04-24T06:17:08;5.57;;;3.83;;
2053;SDS011;1032;52.542;13.440;2023-04-24T06:19:38;4.37;;;2.97;;
2053;SDS011;1032;52.542;13.440;2023-04-24T06:22:06;3.70;;;3.20;;
2053;SDS011;1032;52.542;13.440;2023-04-24T06:24:33;5.77;;;3.83;;
2053;SDS011;1032;52.542;13.440;2023-04-24T06:27:00;5.07;;;3.63;;
2053;SDS011;1032;52.542;13.440;2023-04-24T06:29:26;5.50;;;3.27;;
2053;SDS011;1032;52.542;13.440;2023-04-24T06:31:53;5.33;;;3.50;;
2053;SDS011;1032;52.542;13.440;2023-04-24T06:34:21;6.90;;;3.20;;
2053;SDS011;1032;52.542;13.440;2023-04-24T06:36:48;5.60;;;3.03;;
2053;SDS011;1032;52.542;13.440;2023-04-24T06:39:14;3.73;;;2.83;;
2053;SDS011;1032;52.542;13.440;2023-04-24T06:41:41;5.40;;;3.43;;
2053;SDS011;1032;52.542;13.440;2023-04-24T06:44:17;6.83;;;2.97;;
2053;SDS011;1032;52.542;13.440;2023-04-24T06:46:44;4.00;;;3.10;;
2053;SDS011;1032;52.542;13.440;2023-04-24T06:49:10;4.80;;;2.97;;
2053;SDS011;1032;52.542;13.440;2023-04-24T06:51:38;3.47;;;2.70;;
2053;SDS011;1032;52.542;13.440;2023-04-24T06:54:05;4.50;;;3.40;;
2053;SDS011;1032;52.542;13.440;2023-04-24T06:56:31;7.50;;;2.60;;
2053;SDS011;1032;52.542;13.440;2023-04-24T06:58:59;4.30;;;2.97;;
2053;SDS011;1032;52.542;13.440;2023-04-24T07:01:25;3.23;;;2.93;;
2053;SDS011;1032;52.542;13.440;2023-04-24T07:03:52;3.80;;;2.73;;
2053;SDS011;1032;52.542;13.440;2023-04-24T07:06:18;5.13;;;2.67;;
2053;SDS011;1032;52.542;13.440;2023-04-24T07:08:48;2.53;;;2.30;;
2053;SDS011;1032;52.542;13.440;2023-04-24T07:11:15;4.57;;;2.80;;
2053;SDS011;1032;52.542;13.440;2023-04-24T07:13:42;6.20;;;2.73;;
2053;SDS011;1032;52.542;13.440;2023-04-24T07:16:09;4.07;;;2.40;;
2053;SDS011;1032;52.542;13.440;2023-04-24T07:18:35;2.93;;;1.80;;
2053;SDS011;1032;52.542;13.440;2023-04-24T07:21:02;3.63;;;1.93;;
2053;SDS011;1032;52.542;13.440;2023-04-24T07:23:29;3.60;;;2.20;;
2053;SDS011;1032;52.542;13.440;2023-04-24T07:25:57;5.73;;;1.80;;
2053;SDS011;1032;52.542;13.440;2023-04-24T07:28:24;2.67;;;1.43;;
2053;SDS011;1032;52.542;13.440;2023-04-24T07:30:51;3.60;;;1.97;;
2053;SDS011;1032;52.542;13.440;2023-04-24T07:33:19;2.80;;;1.23;;
2053;SDS011;1032;52.542;13.440;2023-04-24T07:35:45;2.17;;;1.07;;
2053;SDS011;1032;52.542;13.440;2023-04-24T07:38:12;2.70;;;1.47;;
2053;SDS011;1032;52.542;13.440;2023-04-24T07:40:39;3.20;;;1.60;;
2053;SDS011;1032;52.542;13.440;2023-04-24T07:43:07;2.93;;;1.20;;
2053;SDS011;1032;52.542;13.440;2023-04-24T07:45:33;2.90;;;1.50;;
2053;SDS011;1032;52.542;13.440;2023-04-24T07:48:02;3.80;;;1.20;;
2053;SDS011;1032;52.542;13.440;2023-04-24T07:50:29;2.00;;;1.20;;
2053;SDS011;1032;52.542;13.440;2023-04-24T07:52:55;3.30;;;1.43;;
2053;SDS011;1032;52.542;13.440;2023-04-24T07:55:22;1.90;;;1.10;;
2053;SDS011;1032;52.542;13.440;2023-04-24T07:57:49;2.97;;;1.20;;
2053;SDS011;1032;52.542;13.440;2023-04-24T08:00:17;6.30;;;2.30;;
2053;SDS011;1032;52.542;13.440;2023-04-24T08:02:44;3.93;;;1.63;;
2053;SDS011;1032;52.542;13.440;2023-04-24T08:05:11;5.97;;;1.63;;
2053;SDS011;1032;52.542;13.440;2023-04-24T08:07:38;2.37;;;1.40;;
2053;SDS011;1032;52.542;13.440;2023-04-24T08:10:05;3.20;;;1.13;;
2053;SDS011;1032;52.542;13.440;2023-04-24T08:12:32;1.90;;;1.00;;
2053;SDS011;1032;52.542;13.440;2023-04-24T08:14:59;5.17;;;1.43;;
2053;SDS011;1032;52.542;13.440;2023-04-24T08:17:27;3.90;;;1.53;;
2053;SDS011;1032;52.542;13.440;2023-04-24T08:19:54;2.73;;;1.10;;
2053;SDS011;1032;52.542;13.440;2023-04-24T08:22:26;1.70;;;0.80;;
2053;SDS011;1032;52.542;13.440;2023-04-24T08:24:53;3.53;;;1.10;;
2053;SDS011;1032;52.542;13.440;2023-04-24T08:27:21;5.40;;;1.30;;
2053;SDS011;1032;52.542;13.440;2023-04-24T08:29:47;2.90;;;1.37;;
2053;SDS011;1032;52.542;13.440;2023-04-24T08:32:14;2.73;;;1.57;;
2053;SDS011;1032;52.542;13.440;2023-04-24T08:34:42;1.30;;;0.90;;
2053;SDS011;1032;52.542;13.440;2023-04-24T08:37:08;5.33;;;1.53;;
2053;SDS011;1032;52.542;13.440;2023-04-24T08:39:35;1.50;;;0.90;;
2053;SDS011;1032;52.542;13.440;2023-04-24T08:42:02;2.17;;;1.40;;
2053;SDS011;1032;52.542;13.440;2023-04-24T08:44:33;4.23;;;1.03;;
2053;SDS011;1032;52.542;13.440;2023-04-24T08:47:01;2.53;;;1.20;;
2053;SDS011;1032;52.542;13.440;2023-04-24T08:49:28;4.63;;;0.87;;
2053;SDS011;1032;52.542;13.440;2023-04-24T08:51:57;1.87;;;1.17;;
2053;SDS011;1032;52.542;13.440;2023-04-24T08:54:24;2.03;;;0.97;;
2053;SDS011;1032;52.542;13.440;2023-04-24T08:56:51;2.40;;;1.10;;
2053;SDS011;1032;52.542;13.440;2023-04-24T08:59:23;2.60;;;1.30;;
2053;SDS011;1032;52.542;13.440;2023-04-24T09:01:50;5.73;;;1.67;;
2053;SDS011;1032;52.542;13.440;2023-04-24T09:04:18;8.50;;;2.10;;
2053;SDS011;1032;52.542;13.440;2023-04-24T09:06:47;3.23;;;2.10;;
2053;SDS011;1032;52.542;13.440;2023-04-24T09:09:16;1.70;;;1.27;;
2053;SDS011;1032;52.542;13.440;2023-04-24T09:11:43;3.90;;;2.17;;
2053;SDS011;1032;52.542;13.440;2023-04-24T09:14:10;6.70;;;1.20;;
2053;SDS011;1032;52.542;13.440;2023-04-24T09:16:37;2.97;;;1.30;;
2053;SDS011;1032;52.542;13.440;2023-04-24T09:19:03;5.17;;;1.70;;
2053;SDS011;1032;52.542;13.440;2023-04-24T09:21:31;2.23;;;1.40;;
2053;SDS011;1032;52.542;13.440;2023-04-24T09:23:58;2.00;;;1.20;;
2053;SDS011;1032;52.542;13.440;2023-04-24T09:26:29;2.73;;;1.17;;
2053;SDS011;1032;52.542;13.440;2023-04-24T09:28:58;4.90;;;1.40;;
2053;SDS011;1032;52.542;13.440;2023-04-24T09:31:26;2.00;;;1.23;;
2053;SDS011;1032;52.542;13.440;2023-04-24T09:33:55;3.07;;;1.63;;
2053;SDS011;1032;52.542;13.440;2023-04-24T09:36:29;2.20;;;1.40;;
2053;SDS011;1032;52.542;13.440;2023-04-24T09:38:58;3.43;;;1.30;;
2053;SDS011;1032;52.542;13.440;2023-04-24T09:41:26;2.60;;;1.93;;
2053;SDS011;1032;52.542;13.440;2023-04-24T09:43:55;3.27;;;1.10;;
2053;SDS011;1032;52.542;13.440;2023-04-24T09:46:29;3.63;;;1.47;;
2053;SDS011;1032;52.542;13.440;2023-04-24T09:48:57;1.87;;;1.20;;
2053;SDS011;1032;52.542;13.440;2023-04-24T09:51:33;2.77;;;1.17;;
2053;SDS011;1032;52.542;13.440;2023-04-24T09:54:01;4.03;;;1.20;;
2053;SDS011;1032;52.542;13.440;2023-04-24T09:56:29;2.93;;;1.27;;
2053;SDS011;1032;52.542;13.440;2023-04-24T09:59:05;3.50;;;1.23;;
2053;SDS011;1032;52.542;13.440;2023-04-24T10:01:32;2.03;;;1.30;;
2053;SDS011;1032;52.542;13.440;2023-04-24T10:03:59;2.87;;;1.50;;
2053;SDS011;1032;52.542;13.440;2023-04-24T10:06:29;3.63;;;1.20;;
2053;SDS011;1032;52.542;13.440;2023-04-24T10:08:58;2.20;;;0.97;;
2053;SDS011;1032;52.542;13.440;2023-04-24T10:11:26;2.47;;;1.00;;
2053;SDS011;1032;52.542;13.440;2023-04-24T10:13:53;3.63;;;1.30;;
2053;SDS011;1032;52.542;13.440;2023-04-24T10:16:22;1.90;;;1.23;;
2053;SDS011;1032;52.542;13.440;2023-04-24T10:18:49;3.10;;;1.97;;
2053;SDS011;1032;52.542;13.440;2023-04-24T10:21:16;2.33;;;1.43;;
2053;SDS011;1032;52.542;13.440;2023-04-24T10:23:43;2.87;;;1.37;;
2053;SDS011;1032;52.542;13.440;2023-04-24T10:26:12;2.90;;;1.53;;
2053;SDS011;1032;52.542;13.440;2023-04-24T10:28:43;2.30;;;1.00;;
2053;SDS011;1032;52.542;13.440;2023-04-24T10:31:10;4.30;;;1.63;;
2053;SDS011;1032;52.542;13.440;2023-04-24T10:33:39;3.70;;;1.30;;
2053;SDS011;1032;52.542;13.440;2023-04-24T10:36:08;2.60;;;1.50;;
2053;SDS011;1032;52.542;13.440;2023-04-24T10:38:36;1.90;;;1.03;;
2053;SDS011;1032;52.542;13.440;2023-04-24T10:41:08;3.70;;;1.67;;
2053;SDS011;1032;52.542;13.440;2023-04-24T10:43:40;2.77;;;1.97;;
2053;SDS011;1032;52.542;13.440;2023-04-24T10:46:08;3.93;;;1.57;;
2053;SDS011;1032;52.542;13.440;2023-04-24T10:48:36;3.07;;;1.60;;
2053;SDS011;1032;52.542;13.440;2023-04-24T10:51:13;2.90;;;1.67;;
2053;SDS011;1032;52.542;13.440;2023-04-24T10:53:40;4.10;;;1.47;;
2053;SDS011;1032;52.542;13.440;2023-04-24T10:56:08;5.17;;;2.37;;
2053;SDS011;1032;52.542;13.440;2023-04-24T10:58:36;3.60;;;1.47;;
2053;SDS011;1032;52.542;13.440;2023-04-24T11:01:05;2.17;;;1.10;;
2053;SDS011;1032;52.542;13.440;2023-04-24T11:03:33;5.20;;;2.00;;
2053;SDS011;1032;52.542;13.440;2023-04-24T11:06:03;5.20;;;1.30;;
2053;SDS011;1032;52.542;13.440;2023-04-24T11:08:32;1.80;;;0.90;;
2053;SDS011;1032;52.542;13.440;2023-04-24T11:11:07;2.10;;;1.37;;
2053;SDS011;1032;52.542;13.440;2023-04-24T11:16:28;10.40;;;3.20;;
2053;SDS011;1032;52.542;13.440;2023-04-24T11:19:00;2.73;;;1.40;;
2053;SDS011;1032;52.542;13.440;2023-04-24T11:21:32;2.87;;;1.10;;
2053;SDS011;1032;52.542;13.440;2023-04-24T11:24:25;1.63;;;1.00;;
2053;SDS011;1032;52.542;13.440;2023-04-24T11:26:54;4.67;;;1.73;;
2053;SDS011;1032;52.542;13.440;2023-04-24T11:29:21;3.53;;;1.20;;
2053;SDS011;1032;52.542;13.440;2023-04-24T11:31:49;5.27;;;1.60;;
2053;SDS011;1032;52.542;13.440;2023-04-24T11:34:16;3.67;;;1.17;;
2053;SDS011;1032;52.542;13.440;2023-04-24T11:36:45;2.80;;;1.60;;
2053;SDS011;1032;52.542;13.440;2023-04-24T11:39:13;1.70;;;1.03;;
2053;SDS011;1032;52.542;13.440;2023-04-24T11:41:40;5.47;;;2.33;;
2053;SDS011;1032;52.542;13.440;2023-04-24T11:44:08;5.70;;;1.90;;
2053;SDS011;1032;52.542;13.440;2023-04-24T11:46:35;2.60;;;1.63;;
2053;SDS011;1032;52.542;13.440;2023-04-24T11:49:02;4.50;;;1.40;;
2053;SDS011;1032;52.542;13.440;2023-04-24T11:51:30;4.07;;;1.80;;
2053;SDS011;1032;52.542;13.440;2023-04-24T11:53:58;1.40;;;1.00;;
2053;SDS011;1032;52.542;13.440;2023-04-24T11:56:25;2.90;;;1.80;;
2053;SDS011;1032;52.542;13.440;2023-04-24T11:58:52;1.60;;;1.00;;
2053;SDS011;1032;52.542;13.440;2023-04-24T12:01:19;2.50;;;1.57;;
2053;SDS011;1032;52.542;13.440;2023-04-24T12:03:47;2.80;;;1.10;;
2053;SDS011;1032;52.542;13.440;2023-04-24T12:06:16;4.20;;;1.40;;
2053;SDS011;1032;52.542;13.440;2023-04-24T12:08:45;2.20;;;1.00;;
2053;SDS011;1032;52.542;13.440;2023-04-24T12:11:14;6.93;;;1.50;;
2053;SDS011;1032;52.542;13.440;2023-04-24T12:13:42;3.30;;;1.33;;
2053;SDS011;1032;52.542;13.440;2023-04-24T12:16:10;5.33;;;1.30;;
2053;SDS011;1032;52.542;13.440;2023-04-24T12:18:41;2.17;;;1.13;;
2053;SDS011;1032;52.542;13.440;2023-04-24T12:21:15;4.27;;;1.87;;
2053;SDS011;1032;52.542;13.440;2023-04-24T12:23:43;1.50;;;1.20;;
2053;SDS011;1032;52.542;13.440;2023-04-24T12:26:10;2.60;;;1.60;;
2053;SDS011;1032;52.542;13.440;2023-04-24T12:28:38;4.53;;;2.00;;
2053;SDS011;1032;52.542;13.440;2023-04-24T12:31:05;2.80;;;1.77;;
2053;SDS011;1032;52.542;13.440;2023-04-24T12:33:33;2.33;;;1.50;;
2053;SDS011;1032;52.542;13.440;2023-04-24T12:36:00;1.90;;;1.30;;
2053;SDS011;1032;52.542;13.440;2023-04-24T12:38:28;2.27;;;1.40;;
2053;SDS011;1032;52.542;13.440;2023-04-24T12:41:01;3.63;;;1.77;;
2053;SDS011;1032;52.542;13.440;2023-04-24T12:43:29;1.73;;;0.97;;
2053;SDS011;1032;52.542;13.440;2023-04-24T12:45:57;4.00;;;1.10;;
2053;SDS011;1032;52.542;13.440;2023-04-24T12:48:24;5.90;;;0.97;;
2053;SDS011;1032;52.542;13.440;2023-04-24T12:50:51;4.00;;;1.27;;
2053;SDS011;1032;52.542;13.440;2023-04-24T12:53:18;2.30;;;1.23;;
2053;SDS011;1032;52.542;13.440;2023-04-24T12:55:45;2.13;;;1.03;;
2053;SDS011;1032;52.542;13.440;2023-04-24T12:58:17;4.77;;;1.23;;
2053;SDS011;1032;52.542;13.440;2023-04-24T13:00:43;3.60;;;1.80;;
2053;SDS011;1032;52.542;13.440;2023-04-24T13:03:12;2.80;;;1.80;;
2053;SDS011;1032;52.542;13.440;2023-04-24T13:05:39;3.43;;;1.57;;
2053;SDS011;1032;52.542;13.440;2023-04-24T13:08:06;3.00;;;1.47;;
2053;SDS011;1032;52.542;13.440;2023-04-24T13:10:33;2.77;;;1.30;;
2053;SDS011;1032;52.542;13.440;2023-04-24T13:13:00;2.17;;;1.03;;
2053;SDS011;1032;52.542;13.440;2023-04-24T13:15:27;2.60;;;1.70;;
2053;SDS011;1032;52.542;13.440;2023-04-24T13:17:53;6.90;;;2.10;;
2053;SDS011;1032;52.542;13.440;2023-04-24T13:20:21;5.30;;;1.17;;
2053;SDS011;1032;52.542;13.440;2023-04-24T13:22:48;4.47;;;1.17;;
2053;SDS011;1032;52.542;13.440;2023-04-24T13:25:15;4.07;;;2.17;;
2053;SDS011;1032;52.542;13.440;2023-04-24T13:27:43;4.70;;;2.47;;
2053;SDS011;1032;52.542;13.440;2023-04-24T13:30:10;3.60;;;2.20;;
2053;SDS011;1032;52.542;13.440;2023-04-24T13:32:37;4.80;;;1.40;;
2053;SDS011;1032;52.542;13.440;2023-04-24T13:35:04;4.30;;;1.73;;
2053;SDS011;1032;52.542;13.440;2023-04-24T13:37:32;2.97;;;1.33;;
2053;SDS011;1032;52.542;13.440;2023-04-24T13:39:59;6.93;;;4.17;;
2053;SDS011;1032;52.542;13.440;2023-04-24T13:42:27;5.80;;;1.40;;
2053;SDS011;1032;52.542;13.440;2023-04-24T13:44:53;3.63;;;2.00;;
2053;SDS011;1032;52.542;13.440;2023-04-24T13:47:20;5.90;;;1.40;;
2053;SDS011;1032;52.542;13.440;2023-04-24T13:49:47;5.33;;;1.87;;
2053;SDS011;1032;52.542;13.440;2023-04-24T13:52:14;2.40;;;1.07;;
2053;SDS011;1032;52.542;13.440;2023-04-24T13:54:43;2.43;;;0.90;;
2053;SDS011;1032;52.542;13.440;2023-04-24T13:57:09;4.40;;;1.00;;
2053;SDS011;1032;52.542;13.440;2023-04-24T13:59:36;3.40;;;1.20;;
2053;SDS011;1032;52.542;13.440;2023-04-24T14:02:03;2.70;;;1.20;;
2053;SDS011;1032;52.542;13.440;2023-04-24T14:04:29;3.73;;;1.70;;
2053;SDS011;1032;52.542;13.440;2023-04-24T14:06:56;2.47;;;1.43;;
2053;SDS011;1032;52.542;13.440;2023-04-24T14:09:23;3.00;;;1.43;;
2053;SDS011;1032;52.542;13.440;2023-04-24T14:11:51;5.03;;;3.10;;
2053;SDS011;1032;52.542;13.440;2023-04-24T14:14:17;5.53;;;2.13;;
2053;SDS011;1032;52.542;13.440;2023-04-24T14:16:44;2.83;;;1.30;;
2053;SDS011;1032;52.542;13.440;2023-04-24T14:19:11;2.60;;;1.70;;
2053;SDS011;1032;52.542;13.440;2023-04-24T14:21:38;2.70;;;1.23;;
2053;SDS011;1032;52.542;13.440;2023-04-24T14:24:05;5.33;;;1.83;;
2053;SDS011;1032;52.542;13.440;2023-04-24T14:26:31;2.10;;;1.20;;
2053;SDS011;1032;52.542;13.440;2023-04-24T14:28:59;2.73;;;1.67;;
2053;SDS011;1032;52.542;13.440;2023-04-24T14:31:26;1.90;;;1.23;;
2053;SDS011;1032;52.542;13.440;2023-04-24T14:33:53;4.20;;;1.47;;
2053;SDS011;1032;52.542;13.440;2023-04-24T14:36:19;2.50;;;1.10;;
2053;SDS011;1032;52.542;13.440;2023-04-24T14:38:46;3.37;;;1.70;;
2053;SDS011;1032;52.542;13.440;2023-04-24T14:41:13;4.43;;;1.60;;
2053;SDS011;1032;52.542;13.440;2023-04-24T14:43:39;2.37;;;1.50;;
2053;SDS011;1032;52.542;13.440;2023-04-24T14:46:08;2.20;;;1.67;;
2053;SDS011;1032;52.542;13.440;2023-04-24T14:48:34;2.67;;;1.20;;
2053;SDS011;1032;52.542;13.440;2023-04-24T14:51:01;3.17;;;1.63;;
2053;SDS011;1032;52.542;13.440;2023-04-24T14:53:27;2.23;;;1.50;;
2053;SDS011;1032;52.542;13.440;2023-04-24T14:55:54;3.93;;;1.57;;
2053;SDS011;1032;52.542;13.440;2023-04-24T14:58:21;4.40;;;1.70;;
2053;SDS011;1032;52.542;13.440;2023-04-24T15:00:48;2.40;;;1.30;;
2053;SDS011;1032;52.542;13.440;2023-04-24T15:03:18;5.77;;;1.57;;
2053;SDS011;1032;52.542;13.440;2023-04-24T15:05:45;2.90;;;2.33;;
2053;SDS011;1032;52.542;13.440;2023-04-24T15:08:12;5.07;;;2.37;;
2053;SDS011;1032;52.542;13.440;2023-04-24T15:10:38;2.87;;;1.40;;